Time;durP1;ratioP1;P1;durP2;ratioP2;P2;SDS_P1;SDS_P2;PMS_P1;PMS_P2;Temp;Humidity;BMP_temperature;BMP_pressure;BME280_temperature;BME280_humidity;BME280_pressure;Samples;Min_cycle;Max_cycle;Signal;HPM_P1;HPM_P2
2022/08/10 00:01:22;;;;;;;1.40;0.80;;;22.60;52.30;;;;;;4949261;28;20593;-81
2022/08/10 00:03:48;;;;;;;0.93;0.90;;;22.60;52.40;;;;;;4937157;28;20023;-81
2022/08/10 00:06:13;;;;;;;1.00;0.90;;;22.50;52.40;;;;;;4944108;28;20057;-80
2022/08/10 00:08:40;;;;;;;1.03;0.93;;;22.50;52.50;;;;;;4956462;28;20199;-80
2022/08/10 00:11:07;;;;;;;1.63;0.90;;;22.40;52.60;;;;;;4957924;28;20019;-80
2022/08/10 00:13:33;;;;;;;1.23;0.90;;;22.40;52.70;;;;;;4932724;28;20691;-81
2022/08/10 00:15:58;;;;;;;2.07;1.10;;;22.40;52.80;;;;;;4953056;28;20173;-81
2022/08/10 00:18:25;;;;;;;1.00;0.90;;;22.30;52.80;;;;;;4936313;28;20078;-80
2022/08/10 00:20:51;;;;;;;1.10;0.95;;;22.30;52.90;;;;;;4953632;28;20033;-81
2022/08/10 00:23:17;;;;;;;1.95;0.80;;;22.30;53.00;;;;;;4950610;28;20038;-80
2022/08/10 00:25:43;;;;;;;1.97;0.97;;;22.20;53.00;;;;;;4961502;28;20043;-81
2022/08/10 00:28:09;;;;;;;0.88;0.80;;;22.20;53.10;;;;;;4946630;28;20090;-80
2022/08/10 00:30:35;;;;;;;1.10;0.90;;;22.20;53.20;;;;;;4937223;28;20039;-81
2022/08/10 00:33:00;;;;;;;1.58;0.80;;;22.10;53.10;;;;;;4943452;28;20027;-81
2022/08/10 00:35:26;;;;;;;1.43;0.87;;;22.10;53.20;;;;;;4941272;28;20378;-80
2022/08/10 00:37:52;;;;;;;1.03;0.83;;;22.10;53.30;;;;;;4952241;28;20665;-80
2022/08/10 00:40:18;;;;;;;0.98;0.88;;;22.10;53.40;;;;;;4961597;28;20497;-80
2022/08/10 00:42:44;;;;;;;0.80;0.80;;;22.00;53.40;;;;;;4932665;28;20050;-81
2022/08/10 00:45:10;;;;;;;0.80;0.80;;;22.00;53.50;;;;;;4942033;28;20027;-81
2022/08/10 00:47:36;;;;;;;1.00;0.90;;;21.90;53.50;;;;;;4952195;28;20033;-81
2022/08/10 00:50:03;;;;;;;0.98;0.88;;;21.90;53.60;;;;;;4932567;28;20151;-81
2022/08/10 00:52:30;;;;;;;1.30;0.80;;;21.90;53.80;;;;;;4958272;28;20515;-80
2022/08/10 00:54:57;;;;;;;1.25;1.00;;;21.80;53.80;;;;;;4954969;28;20045;-81
2022/08/10 00:57:24;;;;;;;1.60;0.90;;;21.80;53.90;;;;;;4958081;28;20035;-81
2022/08/10 00:59:51;;;;;;;1.48;0.80;;;21.80;53.90;;;;;;4939571;28;20034;-80
2022/08/10 01:02:17;;;;;;;1.15;0.90;;;21.70;53.90;;;;;;4928900;28;20023;-79
2022/08/10 01:04:43;;;;;;;1.00;0.90;;;21.70;54.00;;;;;;4952427;28;20027;-79
2022/08/10 01:07:18;;;;;;;1.30;0.82;;;21.70;54.00;;;;;;4944662;28;20028;-79
2022/08/10 01:09:44;;;;;;;1.38;1.08;;;21.60;55.10;;;;;;4973210;28;20035;-79
2022/08/10 01:12:27;;;;;;;0.90;0.90;;;21.60;54.10;;;;;;4946001;28;20034;-79
2022/08/10 01:15:06;;;;;;;1.45;0.90;;;21.60;55.50;;;;;;4978313;28;20447;-79
2022/08/10 01:18:19;;;;;;;1.85;1.15;;;21.50;54.80;;;;;;4920644;28;21017;-79
2022/08/10 01:21:22;;;;;;;0.80;0.80;;;21.50;55.80;;;;;;4904429;28;20031;-80
2022/08/10 01:24:07;;;;;;;0.80;0.70;;;21.40;55.70;;;;;;4958033;28;20110;-79
2022/08/10 01:27:00;;;;;;;1.65;0.80;;;21.40;54.30;;;;;;4962052;28;20586;-79
2022/08/10 01:29:57;;;;;;;1.10;1.00;;;21.30;55.80;;;;;;4956138;28;20141;-80
2022/08/10 01:32:51;;;;;;;2.28;0.90;;;21.30;56.00;;;;;;4937399;28;20042;-79
2022/08/10 01:35:34;;;;;;;1.75;1.00;;;21.20;56.10;;;;;;4906348;28;20069;-79
2022/08/10 01:38:21;;;;;;;0.70;0.70;;;21.20;55.10;;;;;;4971052;28;20035;-79
2022/08/10 01:41:00;;;;;;;1.20;0.88;;;21.20;55.80;;;;;;4946923;28;20412;-79
2022/08/10 01:43:29;;;;;;;1.60;0.93;;;21.10;56.10;;;;;;4953969;28;20731;-80
2022/08/10 01:45:58;;;;;;;1.52;0.90;;;21.10;55.00;;;;;;4963793;28;20014;-79
2022/08/10 01:48:47;;;;;;;1.23;1.08;;;21.10;55.30;;;;;;4941590;28;21076;-79
2022/08/10 01:51:25;;;;;;;1.03;0.87;;;21.00;56.70;;;;;;4946066;28;20014;-79
2022/08/10 01:53:59;;;;;;;1.17;0.98;;;21.00;56.30;;;;;;4967143;28;20125;-79
2022/08/10 01:56:28;;;;;;;1.50;0.93;;;21.00;56.00;;;;;;4948663;28;20053;-79
2022/08/10 01:59:22;;;;;;;1.48;0.90;;;21.00;55.60;;;;;;4961604;28;20035;-79
2022/08/10 02:01:52;;;;;;;2.13;0.90;;;20.90;57.00;;;;;;4932200;28;20462;-79
2022/08/10 02:04:21;;;;;;;2.20;0.90;;;20.90;55.70;;;;;;4968147;28;20777;-79
2022/08/10 02:06:49;;;;;;;1.48;1.10;;;20.90;55.90;;;;;;4942384;28;20073;-79
2022/08/10 02:09:23;;;;;;;1.48;1.00;;;20.80;56.00;;;;;;4952732;28;20033;-79
2022/08/10 02:11:51;;;;;;;1.45;1.02;;;20.80;56.30;;;;;;4964332;28;20018;-79
2022/08/10 02:14:17;;;;;;;1.88;1.00;;;20.80;56.00;;;;;;4959069;28;20022;-81
2022/08/10 02:16:47;;;;;;;0.93;0.80;;;20.70;56.10;;;;;;4944667;28;20510;-81
2022/08/10 02:19:17;;;;;;;1.77;0.90;;;20.70;56.30;;;;;;4934370;28;20022;-81
2022/08/10 02:21:46;;;;;;;1.77;1.00;;;20.70;56.50;;;;;;4949337;28;20019;-80
2022/08/10 02:24:13;;;;;;;1.27;1.00;;;20.60;56.50;;;;;;4937551;28;20023;-79
2022/08/10 02:26:43;;;;;;;1.20;0.95;;;20.60;56.40;;;;;;4956698;28;20232;-79
2022/08/10 02:29:11;;;;;;;1.00;0.80;;;20.60;57.00;;;;;;4944591;28;20062;-80
2022/08/10 02:31:39;;;;;;;1.40;1.10;;;20.60;56.70;;;;;;4938239;28;20153;-80
2022/08/10 02:34:08;;;;;;;2.30;1.20;;;20.60;56.80;;;;;;4939392;28;20031;-79
2022/08/10 02:36:37;;;;;;;0.95;0.85;;;20.50;57.20;;;;;;4950450;28;20237;-79
2022/08/10 02:39:04;;;;;;;1.20;0.98;;;20.50;57.00;;;;;;4938850;28;20126;-79
2022/08/10 02:41:38;;;;;;;1.63;0.87;;;20.50;57.20;;;;;;4963643;28;20030;-80
2022/08/10 02:44:08;;;;;;;1.30;0.90;;;20.50;57.60;;;;;;4963027;28;20054;-79
2022/08/10 02:46:53;;;;;;;1.98;1.05;;;20.40;57.30;;;;;;4972983;28;20031;-80
2022/08/10 02:49:25;;;;;;;2.00;0.90;;;20.40;58.70;;;;;;4932485;28;20055;-80
2022/08/10 02:52:00;;;;;;;1.45;1.00;;;20.40;57.70;;;;;;4946556;28;20034;-80
2022/08/10 02:54:30;;;;;;;1.10;0.90;;;20.30;57.80;;;;;;4944017;28;20039;-80
2022/08/10 02:57:19;;;;;;;1.02;0.90;;;20.30;57.70;;;;;;4954961;28;20428;-79
2022/08/10 02:59:48;;;;;;;2.45;1.00;;;20.30;59.00;;;;;;4953916;28;20326;-79
2022/08/10 03:02:34;;;;;;;3.53;1.08;;;20.30;57.90;;;;;;4960298;28;20038;-80
2022/08/10 03:05:06;;;;;;;1.50;1.00;;;20.20;58.90;;;;;;4931338;28;20606;-79
2022/08/10 03:07:37;;;;;;;1.80;1.00;;;20.20;57.80;;;;;;4951361;28;20023;-80
2022/08/10 03:10:05;;;;;;;1.60;0.90;;;20.20;58.30;;;;;;4953208;28;20522;-80
2022/08/10 03:12:34;;;;;;;2.00;1.00;;;20.10;58.20;;;;;;4943522;28;21836;-80
2022/08/10 03:15:01;;;;;;;1.23;1.00;;;20.20;58.10;;;;;;4958523;28;20125;-80
2022/08/10 03:17:28;;;;;;;1.77;1.00;;;20.10;58.10;;;;;;4963177;28;20046;-80
2022/08/10 03:19:56;;;;;;;1.20;0.90;;;20.10;58.30;;;;;;4924494;28;21128;-80
2022/08/10 03:22:23;;;;;;;1.67;1.10;;;20.10;58.50;;;;;;4955972;28;20023;-80
2022/08/10 03:24:52;;;;;;;1.38;1.10;;;20.10;58.50;;;;;;4930371;28;22191;-80
2022/08/10 03:27:18;;;;;;;1.02;0.93;;;20.00;58.60;;;;;;4952336;28;20074;-79
2022/08/10 03:29:44;;;;;;;1.00;0.90;;;20.00;58.50;;;;;;4961530;28;20065;-80
2022/08/10 03:32:11;;;;;;;1.37;1.03;;;20.00;58.60;;;;;;4965129;28;20073;-80
2022/08/10 03:34:38;;;;;;;3.25;1.15;;;20.00;58.60;;;;;;4957934;28;20023;-80
2022/08/10 03:37:04;;;;;;;1.90;1.10;;;20.00;58.80;;;;;;4939433;28;20023;-80
2022/08/10 03:39:30;;;;;;;1.23;1.00;;;19.90;58.70;;;;;;4949140;28;20060;-80
2022/08/10 03:41:59;;;;;;;1.97;1.20;;;19.90;58.80;;;;;;4939692;28;20458;-80
2022/08/10 03:44:30;;;;;;;1.75;1.30;;;19.90;59.20;;;;;;4952280;28;20045;-80
2022/08/10 03:46:59;;;;;;;1.65;1.10;;;19.80;59.30;;;;;;4960840;28;20331;-80
2022/08/10 03:49:26;;;;;;;2.58;1.05;;;19.80;59.40;;;;;;4973234;28;20027;-80
2022/08/10 03:51:54;;;;;;;1.75;1.20;;;19.70;59.20;;;;;;4937798;28;20441;-80
2022/08/10 03:54:20;;;;;;;1.60;1.10;;;19.70;59.20;;;;;;4952276;28;20054;-80
2022/08/10 03:56:46;;;;;;;1.60;1.10;;;19.80;59.30;;;;;;4938005;28;20590;-80
2022/08/10 03:59:15;;;;;;;1.30;1.10;;;19.70;59.40;;;;;;4963002;28;20523;-80
2022/08/10 04:01:44;;;;;;;2.80;1.20;;;19.70;59.60;;;;;;4946688;28;20431;-80
2022/08/10 04:04:11;;;;;;;1.65;1.20;;;19.60;60.00;;;;;;4957209;28;20027;-80
2022/08/10 04:06:37;;;;;;;2.30;1.20;;;19.60;59.60;;;;;;4955644;28;20491;-80
2022/08/10 04:09:03;;;;;;;1.40;1.02;;;19.60;59.60;;;;;;4933237;28;20613;-79
2022/08/10 04:11:29;;;;;;;2.63;1.30;;;19.60;59.80;;;;;;4975085;28;20578;-79
2022/08/10 04:13:55;;;;;;;2.10;1.20;;;19.50;59.80;;;;;;4957111;28;20027;-79
2022/08/10 04:16:21;;;;;;;1.97;1.20;;;19.50;59.90;;;;;;4968114;28;20036;-79
2022/08/10 04:18:46;;;;;;;2.45;1.25;;;19.50;60.00;;;;;;4955956;28;20030;-79
2022/08/10 04:21:19;;;;;;;1.77;1.17;;;19.50;60.00;;;;;;4948211;28;20157;-79
2022/08/10 04:23:48;;;;;;;1.98;1.38;;;19.40;60.80;;;;;;4937978;28;20023;-79
2022/08/10 04:26:15;;;;;;;2.22;1.30;;;19.40;60.30;;;;;;4941197;28;20517;-80
2022/08/10 04:28:41;;;;;;;2.00;1.17;;;19.40;60.40;;;;;;4932615;28;20332;-79
2022/08/10 04:31:08;;;;;;;2.22;1.10;;;19.40;60.40;;;;;;4972736;28;20085;-79
2022/08/10 04:33:38;;;;;;;1.20;1.10;;;19.30;60.50;;;;;;4961923;28;20019;-79
2022/08/10 04:36:06;;;;;;;1.52;1.17;;;19.30;60.70;;;;;;4962483;28;20122;-80
2022/08/10 04:38:33;;;;;;;1.55;1.20;;;19.30;60.60;;;;;;4955808;28;20038;-79
2022/08/10 04:41:00;;;;;;;1.90;1.47;;;19.30;60.70;;;;;;4958765;28;20077;-79
2022/08/10 04:43:26;;;;;;;1.80;1.30;;;19.30;60.80;;;;;;4936724;28;20044;-80
2022/08/10 04:45:51;;;;;;;1.83;1.27;;;19.30;60.80;;;;;;4951212;28;20268;-79
2022/08/10 04:48:19;;;;;;;2.60;1.30;;;19.20;60.80;;;;;;4962473;28;20029;-79
2022/08/10 04:50:45;;;;;;;2.05;1.35;;;19.30;61.10;;;;;;4958429;28;20266;-79
2022/08/10 04:53:10;;;;;;;2.00;1.38;;;19.20;61.10;;;;;;4964274;28;20098;-80
2022/08/10 04:55:36;;;;;;;3.10;1.40;;;19.20;61.30;;;;;;4915171;28;20031;-79
2022/08/10 04:58:02;;;;;;;2.60;1.23;;;19.20;61.30;;;;;;4966715;28;20030;-79
2022/08/10 05:00:28;;;;;;;2.58;1.42;;;19.20;61.30;;;;;;4956679;28;20484;-79
2022/08/10 05:02:54;;;;;;;1.73;1.40;;;19.20;62.20;;;;;;4948289;28;20704;-80
2022/08/10 05:05:19;;;;;;;1.87;1.23;;;19.20;61.60;;;;;;4944246;28;20624;-79
2022/08/10 05:07:45;;;;;;;2.13;1.20;;;19.20;61.70;;;;;;4947263;28;23591;-79
2022/08/10 05:10:11;;;;;;;3.07;1.50;;;19.20;61.80;;;;;;4940114;28;20042;-79
2022/08/10 05:12:37;;;;;;;10.95;2.70;;;19.30;62.60;;;;;;4932365;28;20038;-80
2022/08/10 05:15:09;;;;;;;2.63;1.58;;;19.20;61.80;;;;;;4936167;28;20475;-80
2022/08/10 05:17:35;;;;;;;3.00;1.50;;;19.20;62.50;;;;;;4954118;28;20536;-80
2022/08/10 05:20:03;;;;;;;4.57;1.40;;;19.30;62.00;;;;;;4951237;28;20582;-79
2022/08/10 05:22:29;;;;;;;2.58;1.30;;;19.20;62.20;;;;;;4964064;28;20518;-79
2022/08/10 05:24:55;;;;;;;2.53;1.40;;;19.30;62.20;;;;;;4940734;28;20027;-79
2022/08/10 05:27:20;;;;;;;2.00;1.30;;;19.20;62.20;;;;;;4907828;28;21227;-79
2022/08/10 05:29:46;;;;;;;1.93;1.30;;;19.30;62.40;;;;;;4952608;28;20338;-80
2022/08/10 05:32:12;;;;;;;3.72;1.58;;;19.30;62.40;;;;;;4944716;28;20579;-79
2022/08/10 05:34:38;;;;;;;2.88;1.50;;;19.30;62.60;;;;;;4932142;28;20103;-79
2022/08/10 05:37:05;;;;;;;4.90;1.50;;;19.30;62.60;;;;;;4963360;28;20077;-80
2022/08/10 05:39:32;;;;;;;1.92;1.40;;;19.30;62.90;;;;;;4943364;28;20058;-79
2022/08/10 05:42:00;;;;;;;3.67;1.42;;;19.30;63.60;;;;;;4933410;28;20081;-79
2022/08/10 05:44:26;;;;;;;2.50;1.77;;;19.40;63.10;;;;;;4939484;28;20023;-79
2022/08/10 05:46:51;;;;;;;3.97;1.70;;;19.40;63.10;;;;;;4950525;28;20031;-79
2022/08/10 05:49:17;;;;;;;7.47;1.60;;;19.40;63.30;;;;;;4961139;28;20034;-80
2022/08/10 05:51:43;;;;;;;3.03;1.38;;;19.40;63.40;;;;;;4954137;28;20037;-79
2022/08/10 05:54:14;;;;;;;2.20;1.58;;;19.50;63.60;;;;;;4955466;28;20423;-79
2022/08/10 05:56:42;;;;;;;3.33;1.60;;;19.60;63.70;;;;;;4917994;28;20389;-80
2022/08/10 05:59:11;;;;;;;2.70;1.58;;;19.60;63.90;;;;;;4952871;28;20536;-79
2022/08/10 06:01:40;;;;;;;2.10;1.63;;;19.60;63.90;;;;;;4950009;28;20117;-80
2022/08/10 06:04:08;;;;;;;4.07;1.60;;;19.70;64.10;;;;;;4946379;28;20037;-79
2022/08/10 06:06:35;;;;;;;2.45;1.77;;;19.70;63.70;;;;;;4956336;28;20023;-79
2022/08/10 06:09:02;;;;;;;2.73;1.80;;;19.80;63.90;;;;;;4942117;28;20125;-79
2022/08/10 06:11:29;;;;;;;2.53;1.67;;;19.80;63.80;;;;;;4943189;28;20110;-79
2022/08/10 06:16:42;;;;;;;2.80;1.60;;;19.90;63.80;;;;;;4962795;28;20019;-79
2022/08/10 06:19:12;;;;;;;2.63;1.80;;;20.00;64.00;;;;;;4960733;28;20381;-80
2022/08/10 06:21:38;;;;;;;2.93;1.50;;;20.10;64.00;;;;;;4962453;28;20023;-80
2022/08/10 06:24:09;;;;;;;2.35;1.58;;;20.10;64.00;;;;;;4948912;28;20272;-79
2022/08/10 06:26:36;;;;;;;3.03;1.60;;;20.20;64.10;;;;;;4945079;28;20057;-80
2022/08/10 06:29:12;;;;;;;3.40;1.70;;;20.30;64.20;;;;;;4921777;28;22543;-79
2022/08/10 06:31:41;;;;;;;2.25;1.60;;;20.30;64.70;;;;;;4951930;28;20081;-80
2022/08/10 06:34:10;;;;;;;1.90;1.47;;;20.40;64.30;;;;;;4973978;28;20737;-80
2022/08/10 06:36:38;;;;;;;2.97;1.98;;;20.50;64.30;;;;;;4960282;28;20572;-80
2022/08/10 06:39:04;;;;;;;2.50;1.70;;;20.50;64.30;;;;;;4946035;28;20035;-81
2022/08/10 06:41:34;;;;;;;2.20;1.60;;;20.60;64.10;;;;;;4945472;28;20468;-82
2022/08/10 06:44:05;;;;;;;2.90;1.77;;;20.70;64.30;;;;;;4932667;28;20022;-79
2022/08/10 06:46:35;;;;;;;2.23;1.63;;;20.70;64.40;;;;;;4936889;28;20324;-80
2022/08/10 06:49:05;;;;;;;2.00;1.60;;;20.80;64.40;;;;;;4946195;28;20459;-80
2022/08/10 06:51:34;;;;;;;2.65;1.80;;;20.90;64.40;;;;;;4952120;28;20715;-80
2022/08/10 06:54:07;;;;;;;4.15;1.50;;;20.90;64.40;;;;;;4965484;28;20030;-80
2022/08/10 06:56:38;;;;;;;2.60;1.55;;;21.10;64.80;;;;;;4964956;28;20519;-79
2022/08/10 06:59:20;;;;;;;2.53;1.70;;;21.10;64.40;;;;;;4954958;28;20027;-82
2022/08/10 07:01:52;;;;;;;2.90;1.65;;;21.30;64.90;;;;;;4924405;28;20595;-79
2022/08/10 07:04:44;;;;;;;3.30;1.80;;;21.40;64.20;;;;;;4957363;28;20561;-80
2022/08/10 07:07:17;;;;;;;2.65;1.70;;;21.50;64.30;;;;;;4953088;28;20041;-80
2022/08/10 07:09:44;;;;;;;3.38;1.60;;;21.60;64.30;;;;;;4949978;28;20893;-80
2022/08/10 07:12:12;;;;;;;3.03;1.80;;;21.70;64.00;;;;;;4970951;28;20424;-80
2022/08/10 07:14:44;;;;;;;3.47;1.90;;;21.80;63.90;;;;;;4920674;28;21072;-80
2022/08/10 07:17:21;;;;;;;3.38;2.00;;;22.00;64.10;;;;;;4905648;28;20510;-80
2022/08/10 07:19:50;;;;;;;3.38;1.90;;;22.10;63.90;;;;;;4951316;28;20285;-80
2022/08/10 07:22:18;;;;;;;3.08;1.95;;;22.20;63.60;;;;;;4962570;28;20392;-79
2022/08/10 07:24:45;;;;;;;3.03;1.73;;;22.30;63.40;;;;;;4963297;28;20797;-79
2022/08/10 07:27:12;;;;;;;3.45;1.83;;;22.40;63.40;;;;;;4979233;28;20575;-79
2022/08/10 07:29:41;;;;;;;3.60;2.08;;;22.50;63.40;;;;;;4938228;28;20504;-80
2022/08/10 07:32:10;;;;;;;2.92;1.85;;;22.60;63.30;;;;;;4937293;28;20113;-80
2022/08/10 07:34:38;;;;;;;3.05;1.80;;;22.80;63.10;;;;;;4961791;28;20031;-78
2022/08/10 07:37:07;;;;;;;3.70;2.00;;;22.90;63.00;;;;;;4958440;28;20691;-80
2022/08/10 07:39:37;;;;;;;3.72;1.80;;;23.00;62.90;;;;;;4963332;28;20033;-79
2022/08/10 07:42:04;;;;;;;2.65;2.00;;;23.20;63.00;;;;;;4962524;28;20073;-80
2022/08/10 07:44:31;;;;;;;3.58;2.17;;;23.30;62.70;;;;;;4943969;28;20043;-79
2022/08/10 07:47:02;;;;;;;3.30;2.15;;;23.40;62.60;;;;;;4939885;28;22150;-80
2022/08/10 07:49:34;;;;;;;3.77;1.80;;;23.60;62.50;;;;;;4965044;28;20233;-80
2022/08/10 07:52:04;;;;;;;2.80;1.90;;;23.70;62.50;;;;;;4950870;28;20042;-79
2022/08/10 07:54:33;;;;;;;2.50;1.90;;;23.70;62.40;;;;;;4968883;28;20026;-79
2022/08/10 07:57:01;;;;;;;4.05;1.80;;;23.90;62.70;;;;;;4965894;28;20038;-80
2022/08/10 07:59:36;;;;;;;4.65;1.77;;;24.10;63.00;;;;;;4964949;28;20240;-80
2022/08/10 08:02:05;;;;;;;2.63;1.83;;;24.30;63.10;;;;;;4930651;28;20228;-80
2022/08/10 08:04:32;;;;;;;2.67;1.80;;;24.60;63.30;;;;;;4969012;28;20038;-80
2022/08/10 08:07:03;;;;;;;3.30;2.10;;;24.90;63.00;;;;;;4964203;28;20544;-78
2022/08/10 08:09:30;;;;;;;2.20;1.88;;;25.20;62.50;;;;;;4951844;28;20170;-80
2022/08/10 08:11:57;;;;;;;2.92;2.00;;;25.50;61.90;;;;;;4938781;28;20045;-80
2022/08/10 08:14:25;;;;;;;2.97;1.80;;;25.70;61.50;;;;;;4963839;28;20134;-79
2022/08/10 08:16:54;;;;;;;2.75;1.60;;;25.90;60.90;;;;;;4925584;28;20042;-80
2022/08/10 08:19:20;;;;;;;2.70;1.75;;;26.10;60.80;;;;;;4919585;28;21182;-79
2022/08/10 08:21:48;;;;;;;3.83;1.90;;;26.30;61.50;;;;;;4957765;28;20031;-80
2022/08/10 08:24:15;;;;;;;4.93;2.00;;;26.50;60.60;;;;;;4932946;28;20031;-80
2022/08/10 08:26:43;;;;;;;2.07;1.87;;;26.70;60.30;;;;;;4944893;28;20054;-80
2022/08/10 08:29:12;;;;;;;2.28;1.80;;;27.00;60.40;;;;;;4935304;28;20157;-79
2022/08/10 08:31:39;;;;;;;2.95;1.80;;;27.20;60.20;;;;;;4949771;28;20015;-80
2022/08/10 08:34:25;;;;;;;1.98;1.77;;;27.50;60.30;;;;;;4927572;28;20116;-80
2022/08/10 08:36:52;;;;;;;2.50;1.73;;;27.80;60.70;;;;;;4973521;28;20512;-79
2022/08/10 08:39:18;;;;;;;2.43;1.83;;;28.30;61.50;;;;;;4933738;28;20027;-80
2022/08/10 08:41:49;;;;;;;2.72;1.83;;;28.80;61.80;;;;;;4947714;28;20439;-80
2022/08/10 08:44:24;;;;;;;2.60;1.77;;;29.40;60.90;;;;;;4951996;28;20030;-79
2022/08/10 08:46:52;;;;;;;3.38;2.00;;;30.00;59.40;;;;;;4938021;28;20030;-80
2022/08/10 08:49:40;;;;;;;2.60;1.90;;;30.60;60.80;;;;;;4919313;28;20582;-80
2022/08/10 08:52:29;;;;;;;3.23;1.97;;;31.10;58.80;;;;;;4952025;28;20613;-80
2022/08/10 08:55:32;;;;;;;3.95;1.90;;;31.80;56.70;;;;;;4942797;28;20097;-79
2022/08/10 08:58:10;;;;;;;4.00;2.33;;;32.40;55.30;;;;;;4954202;28;20038;-80
2022/08/10 09:00:49;;;;;;;3.00;2.15;;;33.00;55.20;;;;;;4929924;28;21100;-80
2022/08/10 09:03:33;;;;;;;3.38;2.10;;;33.50;55.00;;;;;;4954773;28;20110;-80
2022/08/10 09:06:28;;;;;;;3.13;2.27;;;34.00;52.30;;;;;;4952615;28;20030;-79
2022/08/10 09:09:27;;;;;;;3.80;2.13;;;34.40;51.10;;;;;;4932695;28;20546;-80
2022/08/10 09:12:07;;;;;;;3.17;2.25;;;34.90;50.80;;;;;;4933828;28;20424;-79
2022/08/10 09:15:02;;;;;;;2.58;2.15;;;35.20;52.50;;;;;;4955849;28;20039;-80
2022/08/10 09:17:58;;;;;;;2.40;2.20;;;35.60;49.30;;;;;;4913785;28;20668;-80
2022/08/10 09:20:46;;;;;;;2.50;1.90;;;35.90;47.60;;;;;;4915860;28;20466;-80
2022/08/10 09:23:38;;;;;;;3.17;2.25;;;36.20;46.60;;;;;;4944113;28;20018;-80
2022/08/10 09:26:17;;;;;;;2.38;2.15;;;36.40;46.20;;;;;;4926731;28;20275;-80
2022/08/10 09:28:43;;;;;;;3.00;2.70;;;36.70;45.90;;;;;;4942676;28;20031;-80
2022/08/10 09:31:10;;;;;;;2.67;2.25;;;36.90;46.80;;;;;;4942066;28;23173;-80
2022/08/10 09:33:46;;;;;;;3.07;2.77;;;37.10;45.70;;;;;;4940599;28;20023;-80
2022/08/10 09:36:27;;;;;;;3.42;2.63;;;37.30;43.50;;;;;;4902128;28;20039;-80
2022/08/10 09:39:12;;;;;;;5.93;2.97;;;37.50;43.70;;;;;;4957771;28;20035;-80
2022/08/10 09:42:04;;;;;;;3.17;2.40;;;37.70;42.40;;;;;;4939333;28;20046;-80
2022/08/10 09:44:40;;;;;;;2.80;2.35;;;38.00;42.10;;;;;;4954457;28;20035;-81
2022/08/10 09:47:24;;;;;;;4.10;3.10;;;38.20;41.90;;;;;;4937955;28;20475;-79
2022/08/10 09:50:21;;;;;;;2.90;2.65;;;38.40;41.10;;;;;;4960217;28;20058;-80
2022/08/10 09:53:12;;;;;;;3.13;2.75;;;38.70;40.00;;;;;;4933899;28;20031;-80
2022/08/10 09:56:22;;;;;;;3.17;2.83;;;38.90;40.10;;;;;;4937575;28;20379;-81
2022/08/10 09:59:20;;;;;;;3.10;2.78;;;39.10;39.80;;;;;;4948925;28;20507;-80
2022/08/10 10:01:59;;;;;;;2.83;2.43;;;39.30;39.30;;;;;;4909286;28;20471;-80
2022/08/10 10:04:39;;;;;;;3.08;2.78;;;39.40;38.40;;;;;;4946428;28;20133;-81
2022/08/10 10:07:09;;;;;;;3.22;2.92;;;39.50;38.10;;;;;;4929838;28;20129;-80
2022/08/10 10:10:01;;;;;;;4.05;2.47;;;39.60;38.50;;;;;;4947190;28;20038;-81
2022/08/10 10:12:51;;;;;;;2.95;2.70;;;39.80;37.00;;;;;;4946806;28;20035;-81
2022/08/10 10:15:54;;;;;;;3.77;2.40;;;39.90;36.60;;;;;;4920696;28;21153;-80
2022/08/10 10:18:46;;;;;;;2.80;2.60;;;40.10;35.50;;;;;;4937993;28;20728;-81
2022/08/10 10:21:35;;;;;;;3.50;3.20;;;40.20;35.90;;;;;;4931301;28;21418;-80
2022/08/10 10:24:09;;;;;;;4.47;3.20;;;40.30;34.90;;;;;;4948233;28;20043;-80
2022/08/10 10:26:48;;;;;;;3.83;3.05;;;40.50;35.40;;;;;;4919187;28;20050;-80
2022/08/10 10:29:46;;;;;;;3.10;2.80;;;40.60;34.80;;;;;;4947268;28;20030;-80
2022/08/10 10:32:17;;;;;;;3.05;2.85;;;40.70;34.40;;;;;;4970223;28;20027;-81
2022/08/10 10:35:13;;;;;;;2.67;2.47;;;40.80;34.00;;;;;;4914157;28;20327;-80
2022/08/10 10:37:40;;;;;;;3.35;3.05;;;40.90;33.40;;;;;;4917015;28;20233;-79
2022/08/10 10:40:07;;;;;;;2.83;2.63;;;41.10;34.70;;;;;;4952704;28;20035;-80
2022/08/10 10:43:10;;;;;;;3.23;2.27;;;41.20;33.80;;;;;;4954322;28;20029;-79
2022/08/10 10:45:47;;;;;;;2.60;2.40;;;41.30;32.40;;;;;;4929815;28;20027;-80
2022/08/10 10:48:20;;;;;;;2.83;2.63;;;41.40;31.70;;;;;;4968510;28;20231;-80
2022/08/10 10:51:16;;;;;;;2.40;2.20;;;41.50;31.60;;;;;;4937683;28;20023;-79
2022/08/10 10:54:14;;;;;;;3.50;3.00;;;41.50;31.40;;;;;;4904913;28;20043;-80
2022/08/10 10:57:05;;;;;;;2.70;2.50;;;41.70;30.80;;;;;;4949845;28;20356;-80
2022/08/10 11:00:08;;;;;;;2.90;2.40;;;41.80;30.90;;;;;;4953920;28;20633;-80
2022/08/10 11:03:05;;;;;;;3.13;2.83;;;42.00;31.40;;;;;;4905675;29;20071;-80
2022/08/10 11:06:14;;;;;;;2.75;2.55;;;42.10;30.00;;;;;;4926088;28;20026;-80
2022/08/10 11:08:46;;;;;;;3.05;2.70;;;42.20;29.20;;;;;;4907107;28;20047;-80
2022/08/10 11:11:22;;;;;;;3.10;2.80;;;42.40;29.30;;;;;;4947567;28;20643;-80
2022/08/10 11:14:00;;;;;;;2.70;2.47;;;42.40;28.70;;;;;;4941013;28;20180;-80
2022/08/10 11:16:45;;;;;;;3.13;2.92;;;42.40;28.90;;;;;;4939904;28;20043;-80
2022/08/10 11:19:49;;;;;;;3.25;3.03;;;42.40;28.40;;;;;;4952574;28;20035;-80
2022/08/10 11:22:31;;;;;;;3.35;3.05;;;42.50;28.00;;;;;;4961528;28;20043;-80
2022/08/10 11:25:00;;;;;;;3.47;3.17;;;42.60;28.30;;;;;;4922180;28;20491;-79
2022/08/10 11:28:06;;;;;;;3.67;3.28;;;42.60;28.20;;;;;;4957217;28;20051;-81
2022/08/10 11:30:54;;;;;;;3.28;2.97;;;42.60;28.00;;;;;;4950113;28;20074;-79
2022/08/10 11:33:40;;;;;;;3.97;2.85;;;42.70;27.70;;;;;;4959617;28;20055;-79
2022/08/10 11:36:20;;;;;;;3.28;2.97;;;42.90;27.40;;;;;;4951967;28;20030;-80
2022/08/10 11:39:15;;;;;;;2.67;2.47;;;43.00;27.20;;;;;;4946571;28;20015;-80
2022/08/10 11:41:44;;;;;;;2.97;2.47;;;43.20;27.70;;;;;;4955548;28;20090;-79
2022/08/10 11:44:28;;;;;;;2.60;2.40;;;43.30;27.10;;;;;;4941727;28;20042;-80
2022/08/10 11:47:11;;;;;;;3.25;2.95;;;43.40;27.30;;;;;;4936827;28;20015;-81
2022/08/10 11:49:45;;;;;;;3.50;3.20;;;43.50;26.00;;;;;;4958575;28;20039;-80
2022/08/10 11:52:21;;;;;;;3.50;3.20;;;43.60;26.30;;;;;;4950007;28;20229;-80
2022/08/10 11:54:57;;;;;;;3.40;3.10;;;43.60;26.10;;;;;;4928684;28;20403;-79
2022/08/10 11:57:29;;;;;;;3.22;3.03;;;43.70;25.90;;;;;;4957454;28;20042;-80
2022/08/10 11:59:57;;;;;;;3.20;2.88;;;43.70;26.10;;;;;;4946531;28;20034;-81
2022/08/10 12:02:40;;;;;;;2.97;2.78;;;43.80;26.10;;;;;;4957126;28;20023;-79
2022/08/10 12:05:14;;;;;;;3.33;3.13;;;43.80;25.10;;;;;;4919456;28;20046;-81
2022/08/10 12:07:52;;;;;;;3.28;3.03;;;43.90;25.30;;;;;;4961865;28;20076;-80
2022/08/10 12:10:20;;;;;;;3.20;3.00;;;44.00;24.60;;;;;;4955102;28;20027;-80
2022/08/10 12:13:05;;;;;;;2.95;2.67;;;44.00;25.30;;;;;;4938145;28;20162;-80
2022/08/10 12:15:57;;;;;;;3.38;3.08;;;43.90;24.40;;;;;;4935918;28;20122;-79
2022/08/10 12:18:28;;;;;;;3.67;3.10;;;44.00;24.80;;;;;;4950857;28;20035;-80
2022/08/10 12:20:59;;;;;;;3.50;2.90;;;44.00;24.60;;;;;;4935251;28;20031;-80
2022/08/10 12:23:42;;;;;;;3.17;2.88;;;44.00;24.80;;;;;;4951815;28;20691;-80
2022/08/10 12:26:13;;;;;;;3.20;3.00;;;44.00;24.70;;;;;;4920614;28;20265;-80
2022/08/10 12:28:50;;;;;;;3.10;2.80;;;44.10;24.60;;;;;;4931985;28;20444;-80
2022/08/10 12:31:20;;;;;;;2.87;2.67;;;44.10;24.30;;;;;;4939646;28;20065;-80
2022/08/10 12:33:51;;;;;;;2.78;2.58;;;44.10;24.80;;;;;;4945390;28;20042;-79
2022/08/10 12:36:25;;;;;;;2.83;2.63;;;44.20;24.40;;;;;;4950623;28;20195;-81
2022/08/10 12:38:58;;;;;;;3.15;2.95;;;44.20;24.20;;;;;;4947849;28;20081;-81
2022/08/10 12:41:36;;;;;;;3.15;2.78;;;44.20;24.30;;;;;;4931501;28;20037;-80
2022/08/10 12:44:20;;;;;;;2.97;2.60;;;44.20;24.10;;;;;;4924564;28;20078;-79
2022/08/10 12:47:14;;;;;;;3.00;2.78;;;44.20;23.80;;;;;;4950495;28;20027;-81
2022/08/10 12:49:52;;;;;;;2.63;2.42;;;44.10;24.00;;;;;;4942080;28;20039;-81
2022/08/10 12:52:30;;;;;;;2.88;2.67;;;44.10;24.00;;;;;;4928577;28;20262;-80
2022/08/10 12:54:58;;;;;;;2.88;2.67;;;44.10;23.90;;;;;;4952093;28;20086;-79
2022/08/10 12:57:25;;;;;;;3.63;3.33;;;44.10;24.00;;;;;;4907692;28;20030;-80
2022/08/10 12:59:58;;;;;;;3.42;3.13;;;44.00;24.00;;;;;;4937684;28;20172;-80
2022/08/10 13:02:37;;;;;;;2.85;2.65;;;44.00;23.60;;;;;;4938099;28;20464;-80
2022/08/10 13:05:07;;;;;;;2.88;2.65;;;44.00;23.70;;;;;;4936235;28;20403;-81
2022/08/10 13:07:35;;;;;;;2.80;2.60;;;43.90;23.70;;;;;;4948956;28;20188;-81
2022/08/10 13:10:03;;;;;;;3.20;3.00;;;43.80;23.80;;;;;;4945252;28;20105;-80
2022/08/10 13:12:32;;;;;;;3.20;2.90;;;43.80;23.80;;;;;;4910591;28;20023;-79
2022/08/10 13:15:09;;;;;;;3.25;2.95;;;43.80;23.80;;;;;;4950789;28;20031;-81
2022/08/10 13:17:37;;;;;;;2.80;2.53;;;43.80;23.40;;;;;;4942695;28;20031;-79
2022/08/10 13:20:11;;;;;;;3.03;2.63;;;43.80;23.70;;;;;;4950600;28;20034;-81
2022/08/10 13:22:38;;;;;;;3.13;2.93;;;43.70;23.60;;;;;;4947522;28;20022;-79
2022/08/10 13:25:06;;;;;;;2.72;2.47;;;43.70;23.70;;;;;;4946983;28;20023;-80